Ault, Minnesota
Current Conditions -  °F | °C
As of 2:14 PM on Thursday 29 Jan 2015 (Local Time) from KTWM Reporting Station
Light Snow Light Snow  
Wind Chill: -9°   Ceiling: 2600
Heat Index: -4°   Visibility: 3mi
Dew Point: -10°   Wind: 8mph
Humidity: 64%   Direction: 300°WNW
Pressure: 30.19"   Gusts: 17mph
Location:  47.3998°N, 91.9141°W
Report Text: KTWM 292014Z AUTO 30007G15KT 261V341 3SM -SN BKN026 OVC030 M04/M10 A3019 RMK AO2
Loading
Personal Weather Stations






























Interactive Weather Map New forecast layout! Learn more

10-Day Weather Forecast

Advertisements
Track Severe Weather on mobile